Time;durP1;ratioP1;P1;durP2;ratioP2;P2;SDS_P1;SDS_P2;PMS_P1;PMS_P2;Temp;Humidity;BMP_temperature;BMP_pressure;BME280_temperature;BME280_humidity;BME280_pressure;Samples;Min_cycle;Max_cycle;Signal;HPM_P1;HPM_P2
2023/12/14 00:01:15;;;;;;;10.60;6.17;;;;;;;3.55;100.00;96473.66;6250058;28;20210;-46
2023/12/14 00:04:17;;;;;;;7.37;6.20;;;;;;;3.56;100.00;96475.25;6268865;28;20962;-47
2023/12/14 00:07:19;;;;;;;13.37;7.27;;;;;;;3.58;100.00;96486.34;6267797;28;20651;-47
2023/12/14 00:10:21;;;;;;;10.50;6.87;;;;;;;3.60;100.00;96484.31;6268537;28;20219;-48
2023/12/14 00:13:23;;;;;;;9.87;7.53;;;;;;;3.60;100.00;96485.13;6268780;28;20282;-46
2023/12/14 00:16:25;;;;;;;8.73;6.70;;;;;;;3.58;100.00;96486.34;6268587;28;20685;-46
2023/12/14 00:19:28;;;;;;;10.20;7.10;;;;;;;3.60;100.00;96495.66;6268028;28;20564;-49
2023/12/14 00:22:30;;;;;;;8.43;6.73;;;;;;;3.61;100.00;96497.25;6268110;28;20194;-47
2023/12/14 00:25:33;;;;;;;11.53;8.10;;;;;;;3.59;100.00;96495.84;6267702;28;20199;-46
2023/12/14 00:28:35;;;;;;;10.23;7.80;;;;;;;3.61;100.00;96499.09;6267953;28;20332;-47
2023/12/14 00:31:37;;;;;;;12.63;7.87;;;;;;;3.62;100.00;96503.31;6267713;28;20682;-47
2023/12/14 00:34:40;;;;;;;9.83;8.10;;;;;;;3.70;100.00;96503.00;6266507;28;20188;-45
2023/12/14 00:37:42;;;;;;;14.00;8.70;;;;;;;3.68;100.00;96514.78;6267546;28;20248;-46
2023/12/14 00:40:44;;;;;;;17.10;8.20;;;;;;;3.66;100.00;96519.47;6267381;28;20187;-47
2023/12/14 00:43:46;;;;;;;14.03;9.63;;;;;;;3.67;100.00;96513.97;6266739;28;20644;-46
2023/12/14 00:46:48;;;;;;;12.40;8.17;;;;;;;3.74;100.00;96522.56;6264986;28;20542;-49
2023/12/14 00:49:50;;;;;;;13.03;9.10;;;;;;;3.68;100.00;96530.56;6267801;28;20195;-47
2023/12/14 00:52:53;;;;;;;14.70;9.33;;;;;;;3.66;100.00;96536.06;6266990;28;20206;-47
2023/12/14 00:55:55;;;;;;;14.50;10.40;;;;;;;3.76;100.00;96535.53;6267250;28;20199;-47
2023/12/14 00:58:57;;;;;;;13.33;8.17;;;;;;;3.81;100.00;96543.53;6267261;28;20208;-47
2023/12/14 01:01:59;;;;;;;10.33;7.80;;;;;;;3.81;100.00;96536.44;6265956;28;20202;-47
2023/12/14 01:05:01;;;;;;;13.10;8.67;;;;;;;3.80;100.00;96531.41;6267179;28;20270;-47
2023/12/14 01:08:04;;;;;;;11.77;8.33;;;;;;;3.81;100.00;96538.28;6266624;28;20805;-48
2023/12/14 01:11:07;;;;;;;17.43;9.43;;;;;;;3.85;100.00;96547.34;6267082;28;20246;-48
2023/12/14 01:14:09;;;;;;;17.00;9.63;;;;;;;3.88;100.00;96552.94;6267089;28;20294;-46
2023/12/14 01:17:12;;;;;;;12.37;8.87;;;;;;;3.94;100.00;96550.41;6265559;28;20199;-46
2023/12/14 01:20:14;;;;;;;16.63;10.03;;;;;;;3.88;100.00;96552.13;6265485;28;20341;-47
2023/12/14 01:23:16;;;;;;;14.37;9.50;;;;;;;3.83;100.00;96549.38;6263784;28;20192;-48
2023/12/14 01:26:18;;;;;;;18.57;10.07;;;;;;;3.87;100.00;96555.81;6245709;28;20276;-49
2023/12/14 01:29:20;;;;;;;12.60;8.67;;;;;;;3.89;100.00;96556.38;6266369;28;20198;-45
2023/12/14 01:32:22;;;;;;;15.57;8.87;;;;;;;3.83;100.00;96554.66;6264921;28;20216;-46
2023/12/14 01:35:24;;;;;;;13.63;9.00;;;;;;;3.86;100.00;96560.28;6266453;28;20207;-45
2023/12/14 01:38:26;;;;;;;15.53;9.73;;;;;;;3.88;100.00;96568.75;6266788;28;20262;-46
2023/12/14 01:41:28;;;;;;;14.57;8.80;;;;;;;3.88;100.00;96562.66;6266449;28;20192;-45
2023/12/14 01:44:30;;;;;;;12.63;8.17;;;;;;;3.85;100.00;96573.69;6263123;28;20195;-45
2023/12/14 01:47:32;;;;;;;13.50;9.40;;;;;;;3.78;100.00;96576.41;6266168;28;20188;-45
2023/12/14 01:50:35;;;;;;;10.97;8.17;;;;;;;3.77;100.00;96577.44;6266312;28;20667;-45
2023/12/14 01:53:37;;;;;;;18.73;10.67;;;;;;;3.74;100.00;96580.50;6266609;28;20714;-46
2023/12/14 01:56:40;;;;;;;13.90;9.03;;;;;;;3.75;100.00;96582.13;6266561;28;20199;-47
2023/12/14 01:59:42;;;;;;;12.90;8.63;;;;;;;3.76;100.00;96582.94;6265884;28;20266;-46
2023/12/14 02:02:44;;;;;;;16.07;10.47;;;;;;;3.74;100.00;96584.97;6266731;28;20831;-45
2023/12/14 02:05:46;;;;;;;15.33;9.43;;;;;;;3.76;100.00;96594.25;6266081;28;20204;-48
2023/12/14 02:08:48;;;;;;;14.50;9.33;;;;;;;3.66;100.00;96578.22;6267327;28;20768;-47
2023/12/14 02:11:51;;;;;;;17.00;11.07;;;;;;;3.80;100.00;96607.78;6266362;28;20707;-46
2023/12/14 02:14:56;;;;;;;17.20;10.73;;;;;;;3.81;100.00;96602.28;6267374;28;20196;-47
2023/12/14 02:17:58;;;;;;;12.47;9.03;;;;;;;3.83;100.00;96602.88;6263086;28;20191;-46
2023/12/14 02:21:00;;;;;;;18.13;10.37;;;;;;;3.82;100.00;96600.47;6266881;28;20187;-47
2023/12/14 02:24:03;;;;;;;19.13;11.30;;;;;;;3.91;100.00;96607.03;6265355;28;20202;-46
2023/12/14 02:27:05;;;;;;;12.70;9.03;;;;;;;3.90;100.00;96618.59;6249971;28;20286;-45
2023/12/14 02:30:08;;;;;;;14.93;9.47;;;;;;;3.60;100.00;96589.66;6267654;28;20214;-45
2023/12/14 02:33:10;;;;;;;15.20;10.60;;;;;;;3.83;100.00;96631.03;6264842;28;20257;-46
2023/12/14 02:36:12;;;;;;;18.83;10.73;;;;;;;3.74;100.00;96613.94;6266844;28;20198;-46
2023/12/14 02:39:14;;;;;;;17.53;11.37;;;;;;;3.93;100.00;96635.75;6266560;28;20200;-47
2023/12/14 02:42:16;;;;;;;18.53;11.37;;;;;;;3.95;100.00;96645.06;6248147;28;20194;-47
2023/12/14 02:45:18;;;;;;;15.40;10.57;;;;;;;3.97;100.00;96635.09;6266165;28;20222;-45
2023/12/14 02:48:21;;;;;;;19.60;11.67;;;;;;;3.98;100.00;96633.25;6265650;28;20237;-47
2023/12/14 02:51:23;;;;;;;18.13;12.17;;;;;;;4.06;100.00;96635.56;6262084;28;20215;-46
2023/12/14 02:54:25;;;;;;;20.73;11.97;;;;;;;4.12;100.00;96643.38;6264156;28;20188;-49
2023/12/14 02:57:27;;;;;;;21.33;12.27;;;;;;;4.20;100.00;96642.25;6269092;28;20675;-47
2023/12/14 03:00:29;;;;;;;16.63;10.63;;;;;;;4.16;100.00;96649.00;6269108;28;20720;-46
2023/12/14 03:03:31;;;;;;;23.57;12.63;;;;;;;4.15;100.00;96652.66;6268725;28;21074;-46
2023/12/14 03:06:34;;;;;;;19.20;12.30;;;;;;;4.14;100.00;96651.06;6268806;28;20195;-45
2023/12/14 03:09:41;;;;;;;20.47;12.60;;;;;;;4.14;100.00;96661.63;6251985;28;20203;-45
2023/12/14 03:12:43;;;;;;;18.57;11.13;;;;;;;4.14;100.00;96659.78;6268933;28;20240;-47
2023/12/14 03:15:45;;;;;;;27.50;14.00;;;;;;;4.15;100.00;96671.13;6268905;28;20191;-47
2023/12/14 03:18:52;;;;;;;20.37;13.37;;;;;;;4.16;100.00;96675.34;6269950;28;20770;-46
2023/12/14 03:21:54;;;;;;;18.77;12.37;;;;;;;4.07;100.00;96650.34;6269892;28;20286;-47
2023/12/14 03:24:56;;;;;;;17.13;11.00;;;;;;;4.29;100.00;96683.09;6269440;28;20333;-47
2023/12/14 03:27:58;;;;;;;15.63;10.40;;;;;;;4.26;100.00;96675.59;6268705;28;20533;-48
2023/12/14 03:31:00;;;;;;;18.03;11.63;;;;;;;4.25;100.00;96686.38;6269792;28;20205;-45
2023/12/14 03:34:03;;;;;;;19.37;12.67;;;;;;;4.30;100.00;96684.69;6267952;28;20218;-46
2023/12/14 03:37:05;;;;;;;14.90;10.33;;;;;;;4.33;100.00;96684.22;6269309;28;20201;-45
2023/12/14 03:40:07;;;;;;;15.67;9.90;;;;;;;4.32;100.00;96695.78;6269178;28;20564;-45
2023/12/14 03:43:09;;;;;;;24.47;12.83;;;;;;;4.14;100.00;96672.97;6265455;28;20192;-46
2023/12/14 03:46:12;;;;;;;21.93;13.10;;;;;;;4.28;100.00;96699.09;6269154;28;20238;-45
2023/12/14 03:49:14;;;;;;;17.20;11.17;;;;;;;4.28;100.00;96694.63;6269424;28;20270;-48
2023/12/14 03:52:16;;;;;;;19.37;12.27;;;;;;;4.30;100.00;96702.34;6269902;28;20208;-48
2023/12/14 03:55:18;;;;;;;16.57;10.13;;;;;;;4.11;100.00;96685.78;6269860;28;20736;-48
2023/12/14 03:58:20;;;;;;;16.80;10.60;;;;;;;4.24;100.00;96708.50;6251629;28;20195;-47
2023/12/14 04:01:22;;;;;;;16.87;10.30;;;;;;;4.22;100.00;96715.81;6267371;28;20191;-47
2023/12/14 04:04:24;;;;;;;15.07;10.10;;;;;;;4.23;100.00;96712.16;6269780;28;20193;-45
2023/12/14 04:07:27;;;;;;;16.10;9.27;;;;;;;4.23;100.00;96714.78;6269208;28;20228;-46
2023/12/14 04:10:29;;;;;;;18.33;10.83;;;;;;;4.19;100.00;96719.72;6268501;28;20604;-47
2023/12/14 04:13:32;;;;;;;13.37;9.53;;;;;;;4.17;100.00;96721.78;6268883;28;20215;-47
2023/12/14 04:16:34;;;;;;;11.70;8.27;;;;;;;4.18;100.00;96723.38;6268819;28;20560;-48
2023/12/14 04:19:38;;;;;;;11.83;8.60;;;;;;;4.18;100.00;96727.84;6263416;28;20274;-46
2023/12/14 04:22:41;;;;;;;13.50;8.87;;;;;;;4.11;100.00;96731.38;6268893;28;20199;-46
2023/12/14 04:25:43;;;;;;;12.30;8.90;;;;;;;4.11;100.00;96736.66;6267870;28;20560;-47
2023/12/14 04:28:46;;;;;;;16.30;9.57;;;;;;;4.21;100.00;96738.75;6268517;28;20206;-47
2023/12/14 04:31:48;;;;;;;12.20;9.17;;;;;;;4.45;100.00;96749.38;6266491;28;20220;-47
2023/12/14 04:34:50;;;;;;;13.40;9.43;;;;;;;4.55;100.00;96752.25;6266657;28;20193;-45
2023/12/14 04:37:52;;;;;;;12.20;9.37;;;;;;;4.60;100.00;96753.19;6267620;28;20670;-46
2023/12/14 04:40:54;;;;;;;10.27;8.60;;;;;;;4.64;100.00;96756.19;6264782;28;20246;-46
2023/12/14 04:43:56;;;;;;;12.67;8.80;;;;;;;4.59;100.00;96764.78;6263996;28;20281;-47
2023/12/14 04:46:58;;;;;;;12.03;8.67;;;;;;;4.50;100.00;96771.41;6265453;28;20195;-45
2023/12/14 04:50:01;;;;;;;10.87;8.23;;;;;;;4.41;100.00;96767.47;6267354;28;20272;-46
2023/12/14 04:53:04;;;;;;;11.20;8.10;;;;;;;4.26;100.00;96775.78;6266006;28;20216;-45
2023/12/14 04:56:11;;;;;;;11.37;8.10;;;;;;;4.19;100.00;96777.72;6268020;28;20222;-45
2023/12/14 04:59:13;;;;;;;9.73;7.70;;;;;;;4.19;100.00;96768.97;6267624;28;20253;-46
2023/12/14 05:02:15;;;;;;;8.53;7.20;;;;;;;4.21;100.00;96783.56;6266490;28;20187;-46
2023/12/14 05:05:18;;;;;;;8.17;6.33;;;;;;;4.24;100.00;96777.84;6267669;28;20208;-48
2023/12/14 05:08:20;;;;;;;3.23;2.80;;;;;;;4.39;100.00;96782.72;6267329;28;20203;-48
2023/12/14 05:11:22;;;;;;;2.73;2.10;;;;;;;4.59;100.00;96785.88;6266782;28;20227;-47
2023/12/14 05:14:24;;;;;;;2.30;1.70;;;;;;;4.64;100.00;96790.47;6266812;28;20749;-49
2023/12/14 05:17:26;;;;;;;2.83;1.83;;;;;;;4.64;100.00;96799.19;6265792;28;20203;-48
2023/12/14 05:20:29;;;;;;;1.20;1.10;;;;;;;4.68;100.00;96802.19;6266713;28;20206;-46
2023/12/14 05:23:31;;;;;;;1.47;1.03;;;;;;;4.73;100.00;96806.75;6267077;28;20701;-45
2023/12/14 05:26:34;;;;;;;0.80;0.80;;;;;;;4.62;100.00;96808.34;6263055;28;20206;-46
2023/12/14 05:29:36;;;;;;;1.10;0.70;;;;;;;4.04;100.00;96724.56;6266829;28;20204;-45
2023/12/14 05:32:38;;;;;;;0.77;0.40;;;;;;;4.80;100.00;96815.41;6264965;28;20262;-46
2023/12/14 05:35:40;;;;;;;0.40;0.40;;;;;;;4.94;100.00;96824.72;6265085;28;20284;-47
2023/12/14 05:38:43;;;;;;;0.20;0.20;;;;;;;5.02;100.00;96820.94;6267165;28;20200;-47
2023/12/14 05:41:45;;;;;;;0.30;0.30;;;;;;;4.94;100.00;96826.56;6266197;28;20200;-48
2023/12/14 05:44:47;;;;;;;0.30;0.30;;;;;;;4.85;100.00;96837.44;6257003;28;20203;-45
2023/12/14 05:47:51;;;;;;;0.80;0.30;;;;;;;4.67;100.00;96832.22;6265097;28;20196;-48
2023/12/14 05:50:53;;;;;;;0.30;0.30;;;;;;;4.70;100.00;96838.88;6266598;28;20527;-47
2023/12/14 05:53:55;;;;;;;0.20;0.20;;;;;;;4.66;100.00;96820.06;6265728;28;20672;-47
2023/12/14 05:56:57;;;;;;;0.47;0.30;;;;;;;4.76;100.00;96835.34;6266933;28;20202;-46
2023/12/14 06:00:00;;;;;;;0.40;0.40;;;;;;;4.81;100.00;96849.47;6267149;28;20742;-47
2023/12/14 06:03:02;;;;;;;0.30;0.30;;;;;;;4.68;100.00;96849.69;6265964;28;20195;-47
2023/12/14 06:06:05;;;;;;;0.40;0.40;;;;;;;4.59;100.00;96858.94;6265656;28;20197;-47
2023/12/14 06:09:07;;;;;;;0.47;0.23;;;;;;;4.61;100.00;96851.59;6263636;28;20206;-47
2023/12/14 06:12:09;;;;;;;0.30;0.30;;;;;;;4.50;100.00;96849.72;6266206;28;20235;-47
2023/12/14 06:15:12;;;;;;;0.77;0.67;;;;;;;4.43;100.00;96870.06;6266323;28;20567;-46
2023/12/14 06:18:17;;;;;;;0.60;0.30;;;;;;;4.61;100.00;96862.94;6246286;28;20271;-47
2023/12/14 06:21:19;;;;;;;2.10;0.60;;;;;;;4.51;100.00;96873.22;6263802;28;20275;-48
2023/12/14 06:24:22;;;;;;;0.30;0.30;;;;;;;4.56;100.00;96883.91;6244685;28;20708;-47
2023/12/14 06:27:26;;;;;;;0.20;0.20;;;;;;;4.73;100.00;96892.00;6265409;28;20187;-46
2023/12/14 06:30:28;;;;;;;1.23;0.33;;;;;;;4.79;100.00;96879.75;6266488;28;20203;-47
2023/12/14 06:33:31;;;;;;;0.50;0.30;;;;;;;4.91;100.00;96896.41;6271488;28;20203;-48
2023/12/14 06:36:34;;;;;;;1.07;0.33;;;;;;;4.78;100.00;96907.16;6270608;28;20224;-47
2023/12/14 06:39:36;;;;;;;0.40;0.40;;;;;;;4.62;100.00;96876.94;6252626;28;20189;-47
2023/12/14 06:42:39;;;;;;;0.93;0.30;;;;;;;4.75;100.00;96902.34;6270645;28;20208;-48
2023/12/14 06:45:41;;;;;;;0.53;0.43;;;;;;;4.83;100.00;96916.03;6269080;28;20580;-45
2023/12/14 06:48:43;;;;;;;0.50;0.40;;;;;;;4.80;100.00;96913.03;6270746;28;20196;-45
2023/12/14 06:51:45;;;;;;;0.87;0.20;;;;;;;4.79;100.00;96916.69;6270216;28;20190;-46
2023/12/14 06:54:48;;;;;;;0.30;0.30;;;;;;;4.72;100.00;96916.75;6270143;28;20711;-45
2023/12/14 06:57:50;;;;;;;0.33;0.30;;;;;;;4.63;100.00;96912.81;6270294;28;20476;-46
2023/12/14 07:00:52;;;;;;;0.13;0.13;;;;;;;4.64;100.00;96911.81;6270181;28;20200;-45
2023/12/14 07:03:54;;;;;;;0.27;0.27;;;;;;;4.60;100.00;96931.75;6269870;28;20245;-47
2023/12/14 07:06:56;;;;;;;0.20;0.20;;;;;;;4.56;100.00;96933.22;6268753;28;20580;-47
2023/12/14 07:09:58;;;;;;;0.20;0.20;;;;;;;4.73;100.00;96950.06;6269717;28;20295;-47
2023/12/14 07:13:00;;;;;;;0.30;0.30;;;;;;;4.84;100.00;96956.41;6269931;28;20222;-45
2023/12/14 07:16:10;;;;;;;0.20;0.20;;;;;;;4.85;100.00;96950.91;6268815;28;20557;-47
2023/12/14 07:19:12;;;;;;;0.20;0.20;;;;;;;4.95;100.00;96954.84;6268119;28;20659;-47
2023/12/14 07:22:14;;;;;;;0.30;0.20;;;;;;;4.83;100.00;96971.44;6269855;28;20213;-47
2023/12/14 07:25:16;;;;;;;0.93;0.30;;;;;;;4.81;100.00;96952.38;6269040;28;20270;-50
2023/12/14 07:28:18;;;;;;;0.80;0.30;;;;;;;4.83;100.00;96976.72;6250318;28;20214;-47
2023/12/14 07:31:20;;;;;;;0.23;0.20;;;;;;;4.82;100.00;96985.63;6268902;28;20195;-49
2023/12/14 07:34:24;;;;;;;0.30;0.30;;;;;;;4.78;100.00;96992.41;6269476;28;20210;-49
2023/12/14 07:37:26;;;;;;;0.23;0.23;;;;;;;4.66;100.00;97000.25;6269234;28;20347;-46
2023/12/14 07:40:28;;;;;;;0.80;0.23;;;;;;;4.59;100.00;96993.44;6269564;28;20203;-46
2023/12/14 07:43:30;;;;;;;0.30;0.30;;;;;;;4.51;100.00;96993.72;6267710;28;20185;-46
2023/12/14 07:46:32;;;;;;;0.40;0.40;;;;;;;4.43;100.00;97000.09;6268842;28;20212;-48
2023/12/14 07:49:35;;;;;;;0.40;0.20;;;;;;;4.43;100.00;97013.28;6269246;28;20191;-49
2023/12/14 07:52:37;;;;;;;0.47;0.27;;;;;;;4.33;100.00;96991.88;6268900;28;20710;-48
2023/12/14 07:55:40;;;;;;;0.20;0.20;;;;;;;4.52;100.00;97021.72;6268800;28;20193;-48
2023/12/14 07:58:42;;;;;;;0.30;0.20;;;;;;;4.51;100.00;97026.19;6268977;28;20197;-50
2023/12/14 08:01:44;;;;;;;1.40;0.40;;;;;;;4.58;100.00;97026.94;6268387;28;20672;-48
2023/12/14 08:04:46;;;;;;;0.30;0.30;;;;;;;4.62;100.00;97028.09;6268897;28;20784;-48
2023/12/14 08:07:52;;;;;;;0.20;0.20;;;;;;;4.91;100.00;97041.56;6268123;28;20688;-48
2023/12/14 08:10:54;;;;;;;0.40;0.40;;;;;;;5.10;100.00;97048.44;6267504;28;20225;-48
2023/12/14 08:13:56;;;;;;;0.20;0.20;;;;;;;5.03;100.00;97028.47;6268367;28;20584;-48
2023/12/14 08:16:58;;;;;;;0.27;0.23;;;;;;;5.19;100.00;97056.88;6268349;28;20207;-47
2023/12/14 08:20:01;;;;;;;0.50;0.37;;;;;;;5.14;100.00;97062.00;6266152;28;20231;-45
2023/12/14 08:23:03;;;;;;;1.20;0.43;;;;;;;5.14;100.00;97064.66;6266068;28;20187;-48
2023/12/14 08:26:08;;;;;;;0.30;0.30;;;;;;;5.11;100.00;97073.81;6268670;28;20193;-47
2023/12/14 08:29:10;;;;;;;0.43;0.33;;;;;;;5.12;100.00;97078.09;6267427;28;20207;-50
2023/12/14 08:32:12;;;;;;;0.50;0.40;;;;;;;5.21;100.00;97075.13;6267919;28;20281;-51
2023/12/14 08:35:14;;;;;;;0.30;0.30;;;;;;;5.12;100.00;97061.41;6268466;28;20195;-50
2023/12/14 08:38:17;;;;;;;0.60;0.40;;;;;;;5.35;100.00;97087.13;6265386;28;20196;-47
2023/12/14 08:41:19;;;;;;;0.30;0.30;;;;;;;5.52;100.00;97104.00;6268207;28;20573;-49
2023/12/14 08:44:21;;;;;;;0.33;0.33;;;;;;;5.36;100.00;97094.03;6248544;28;20268;-48
2023/12/14 08:47:23;;;;;;;0.50;0.50;;;;;;;5.53;100.00;97104.78;6265763;28;20829;-48
2023/12/14 08:50:26;;;;;;;0.20;0.20;;;;;;;5.55;100.00;97103.53;6267768;28;20193;-50
2023/12/14 08:53:29;;;;;;;0.40;0.27;;;;;;;5.50;100.00;97103.38;6266631;28;20217;-47
2023/12/14 08:56:32;;;;;;;0.30;0.30;;;;;;;5.46;100.00;97104.88;6264069;28;20209;-48
2023/12/14 08:59:35;;;;;;;0.50;0.40;;;;;;;5.67;100.00;97111.53;6267250;28;20202;-51
2023/12/14 09:02:37;;;;;;;0.40;0.40;;;;;;;5.63;100.00;97107.72;6268131;28;20205;-50
2023/12/14 09:05:42;;;;;;;0.20;0.20;;;;;;;5.65;100.00;97121.50;6267496;28;20708;-46
2023/12/14 09:08:45;;;;;;;0.30;0.30;;;;;;;5.88;100.00;97111.00;6267280;28;20200;-47
2023/12/14 09:11:47;;;;;;;0.20;0.20;;;;;;;5.66;100.00;97128.38;6266929;28;20229;-45
2023/12/14 09:14:49;;;;;;;0.60;0.27;;;;;;;5.62;100.00;97125.41;6267240;28;20215;-48
2023/12/14 09:17:51;;;;;;;0.20;0.20;;;;;;;5.76;100.00;97133.94;6262528;28;20207;-47
2023/12/14 09:20:53;;;;;;;0.30;0.20;;;;;;;5.89;100.00;97135.59;6265054;28;20203;-48
2023/12/14 09:23:55;;;;;;;0.27;0.20;;;;;;;5.75;100.00;97140.25;6266605;28;20242;-49
2023/12/14 09:26:58;;;;;;;0.30;0.30;;;;;;;5.89;100.00;97144.31;6266208;28;20193;-46
2023/12/14 09:30:00;;;;;;;0.30;0.23;;;;;;;5.83;100.00;97147.88;6266235;28;20209;-48
2023/12/14 09:33:03;;;;;;;0.30;0.30;;;;;;;5.74;100.00;97154.50;6266522;28;20758;-51
2023/12/14 09:36:06;;;;;;;0.67;0.20;;;;;;;5.70;100.00;97151.50;6266319;28;20219;-49
2023/12/14 09:39:11;;;;;;;0.30;0.30;;;;;;;5.73;100.00;97155.53;6266540;28;20201;-47
2023/12/14 09:42:19;;;;;;;1.07;0.37;;;;;;;5.76;100.00;97160.34;6265289;28;20190;-48
2023/12/14 09:45:24;;;;;;;0.43;0.40;;;;;;;5.81;100.00;97152.59;6265450;28;20656;-46
2023/12/14 09:48:28;;;;;;;0.40;0.40;;;;;;;5.81;100.00;97157.88;6266672;28;20201;-48
2023/12/14 09:51:31;;;;;;;0.40;0.40;;;;;;;5.91;100.00;97171.41;6266260;28;20568;-47
2023/12/14 09:54:33;;;;;;;0.30;0.30;;;;;;;5.95;100.00;97169.09;6266560;28;20216;-47
2023/12/14 09:57:35;;;;;;;2.27;0.50;;;;;;;6.07;100.00;97175.25;6266059;28;20227;-49
2023/12/14 10:00:40;;;;;;;0.47;0.47;;;;;;;6.17;100.00;97180.78;6265954;28;20198;-50
2023/12/14 10:03:42;;;;;;;0.90;0.40;;;;;;;6.15;100.00;97174.91;6265233;28;20558;-48
2023/12/14 10:06:47;;;;;;;0.80;0.60;;;;;;;6.23;100.00;97176.44;6252920;28;20565;-46
2023/12/14 10:09:50;;;;;;;0.60;0.50;;;;;;;6.24;100.00;97174.59;6271351;28;20279;-48
2023/12/14 10:12:54;;;;;;;0.70;0.40;;;;;;;6.22;100.00;97181.94;6270713;28;20606;-47
2023/12/14 10:15:56;;;;;;;0.33;0.27;;;;;;;6.14;100.00;97181.22;6270854;28;20213;-46
2023/12/14 10:18:59;;;;;;;0.60;0.50;;;;;;;6.13;100.00;97184.91;6270021;28;20268;-47
2023/12/14 10:22:02;;;;;;;0.77;0.50;;;;;;;6.15;100.00;97185.47;6268238;28;20243;-47
2023/12/14 10:25:09;;;;;;;0.80;0.60;;;;;;;6.20;100.00;97193.53;6271388;28;20190;-46
2023/12/14 10:28:16;;;;;;;0.43;0.40;;;;;;;6.21;100.00;97194.38;6268700;28;20226;-48
2023/12/14 10:31:19;;;;;;;0.77;0.50;;;;;;;6.30;100.00;97166.53;6271161;28;20208;-47
2023/12/14 10:34:21;;;;;;;0.83;0.50;;;;;;;6.31;100.00;97199.91;6270910;28;20215;-49
2023/12/14 10:37:25;;;;;;;0.50;0.50;;;;;;;6.36;100.00;97210.63;6270744;28;20185;-49
2023/12/14 10:40:29;;;;;;;0.60;0.40;;;;;;;6.36;100.00;97210.63;6270834;28;20206;-48
2023/12/14 10:43:33;;;;;;;0.87;0.50;;;;;;;6.36;100.00;97223.06;6265799;28;20574;-47
2023/12/14 10:46:56;;;;;;;0.43;0.40;;;;;;;6.37;100.00;97217.53;6269589;28;20250;-50
2023/12/14 10:50:01;;;;;;;1.10;0.40;;;;;;;6.43;100.00;97218.47;6267334;28;20194;-52
2023/12/14 10:53:04;;;;;;;0.77;0.40;;;;;;;6.57;100.00;97230.47;6270870;28;20218;-49
2023/12/14 10:56:10;;;;;;;1.73;0.47;;;;;;;6.65;100.00;97230.13;6270571;28;20190;-50
2023/12/14 10:59:16;;;;;;;0.40;0.40;;;;;;;6.89;99.46;97228.31;6269742;28;20205;-50
2023/12/14 11:02:18;;;;;;;0.80;0.47;;;;;;;6.81;99.83;97233.94;6252531;28;20200;-52
2023/12/14 11:05:28;;;;;;;0.60;0.40;;;;;;;6.76;100.00;97247.06;6269996;28;20275;-51
2023/12/14 11:08:34;;;;;;;0.67;0.57;;;;;;;6.77;100.00;97247.88;6270284;28;20650;-50
2023/12/14 11:11:53;;;;;;;0.50;0.50;;;;;;;6.81;100.00;97254.31;6268346;28;20234;-48
2023/12/14 11:14:55;;;;;;;0.80;0.60;;;;;;;6.86;100.00;97259.75;6269953;28;20215;-48
2023/12/14 11:18:09;;;;;;;0.70;0.70;;;;;;;6.85;100.00;97266.88;6267909;28;20198;-49
2023/12/14 11:21:20;;;;;;;0.80;0.80;;;;;;;6.98;100.00;97269.28;6266328;28;20322;-50
2023/12/14 11:24:22;;;;;;;1.00;0.90;;;;;;;7.13;100.00;97260.09;6268717;28;20195;-50
2023/12/14 11:27:29;;;;;;;1.03;0.93;;;;;;;7.09;100.00;97253.66;6269603;28;20674;-47
2023/12/14 11:30:32;;;;;;;1.00;0.83;;;;;;;7.11;100.00;97260.34;6269683;28;20329;-49
2023/12/14 11:33:55;;;;;;;1.00;0.90;;;;;;;7.06;100.00;97265.53;6269692;28;20581;-49
2023/12/14 11:36:58;;;;;;;1.10;1.00;;;;;;;6.83;100.00;97245.09;6268985;28;20987;-48
2023/12/14 11:40:01;;;;;;;1.37;1.00;;;;;;;6.85;100.00;97271.38;6268750;28;20202;-47
2023/12/14 11:43:09;;;;;;;1.47;1.20;;;;;;;6.77;100.00;97277.78;6269408;28;20669;-47
2023/12/14 11:46:12;;;;;;;1.13;1.00;;;;;;;6.60;100.00;97258.28;6265213;28;20194;-49
2023/12/14 11:49:14;;;;;;;1.07;0.87;;;;;;;6.75;100.00;97281.69;6267702;28;20201;-49
2023/12/14 11:52:18;;;;;;;1.10;1.00;;;;;;;6.68;100.00;97281.78;6269188;28;20838;-49
2023/12/14 11:55:21;;;;;;;1.13;1.03;;;;;;;6.64;100.00;97289.38;6269176;28;20573;-48
2023/12/14 11:58:24;;;;;;;1.43;1.20;;;;;;;6.69;100.00;97281.56;6268043;28;20202;-47
2023/12/14 12:01:28;;;;;;;0.80;0.80;;;;;;;6.57;100.00;97290.53;6269039;28;20704;-46
2023/12/14 12:04:30;;;;;;;0.90;0.90;;;;;;;6.52;100.00;97295.69;6267088;28;20253;-51
2023/12/14 12:07:33;;;;;;;1.57;1.20;;;;;;;6.52;100.00;97293.03;6268723;28;20199;-49
2023/12/14 12:10:36;;;;;;;0.93;0.90;;;;;;;6.57;100.00;97286.03;6268465;28;20603;-48
2023/12/14 12:13:39;;;;;;;1.13;1.03;;;;;;;6.50;100.00;97292.44;6267306;28;20619;-48
2023/12/14 12:16:41;;;;;;;1.10;0.97;;;;;;;6.41;100.00;97287.47;6268572;28;20717;-48
2023/12/14 12:19:43;;;;;;;1.00;0.90;;;;;;;6.36;100.00;97291.84;6249087;28;20198;-48
2023/12/14 12:22:45;;;;;;;1.30;1.20;;;;;;;6.31;100.00;97287.22;6264917;28;20210;-47
2023/12/14 12:25:47;;;;;;;0.90;0.90;;;;;;;6.52;100.00;97300.97;6267544;28;20667;-51
2023/12/14 12:28:49;;;;;;;1.27;1.17;;;;;;;6.44;100.00;97294.16;6267241;28;20193;-51
2023/12/14 12:31:52;;;;;;;1.13;1.00;;;;;;;6.41;100.00;97282.19;6268152;28;20571;-49
2023/12/14 12:34:54;;;;;;;1.20;1.10;;;;;;;6.45;100.00;97301.88;6268121;28;20740;-51
2023/12/14 12:37:56;;;;;;;1.00;0.87;;;;;;;6.37;100.00;97304.03;6266834;28;20645;-48
2023/12/14 12:41:00;;;;;;;1.07;1.00;;;;;;;6.14;100.00;97273.78;6265390;28;20697;-48
2023/12/14 12:44:05;;;;;;;0.70;0.70;;;;;;;6.42;100.00;97304.97;6268165;28;20654;-47
2023/12/14 12:47:08;;;;;;;0.80;0.80;;;;;;;6.35;100.00;97322.75;6265066;28;20204;-50
2023/12/14 12:50:12;;;;;;;0.40;0.40;;;;;;;6.30;100.00;97319.16;6267080;28;20669;-49
2023/12/14 12:53:15;;;;;;;0.50;0.50;;;;;;;6.22;100.00;97322.94;6268207;28;20205;-49
2023/12/14 12:56:17;;;;;;;0.70;0.60;;;;;;;6.27;100.00;97332.84;6267334;28;20744;-49
2023/12/14 12:59:19;;;;;;;0.47;0.47;;;;;;;6.19;100.00;97337.41;6267703;28;20197;-48
2023/12/14 13:02:22;;;;;;;0.57;0.57;;;;;;;6.18;100.00;97343.72;6267219;28;20193;-50
2023/12/14 13:05:25;;;;;;;0.40;0.40;;;;;;;6.04;100.00;97338.81;6251771;28;20268;-50
2023/12/14 13:08:27;;;;;;;0.60;0.60;;;;;;;5.97;100.00;97338.09;6267594;28;20203;-50
2023/12/14 13:11:29;;;;;;;0.40;0.40;;;;;;;5.96;100.00;97345.22;6267160;28;20240;-50
2023/12/14 13:14:32;;;;;;;0.57;0.57;;;;;;;5.92;100.00;97349.31;6265521;28;20299;-49
2023/12/14 13:17:34;;;;;;;0.63;0.50;;;;;;;5.90;100.00;97362.72;6265323;28;20570;-50
2023/12/14 13:20:36;;;;;;;1.93;0.80;;;;;;;5.91;100.00;97367.03;6265688;28;20650;-49
2023/12/14 13:23:38;;;;;;;0.60;0.60;;;;;;;6.04;100.00;97375.81;6267004;28;20970;-50
2023/12/14 13:26:41;;;;;;;0.50;0.50;;;;;;;5.85;100.00;97375.78;6266338;28;20201;-46
2023/12/14 13:29:43;;;;;;;0.67;0.57;;;;;;;5.88;100.00;97380.63;6264738;28;20613;-47
2023/12/14 13:32:45;;;;;;;0.60;0.60;;;;;;;5.81;100.00;97390.47;6266821;28;20670;-48
2023/12/14 13:35:48;;;;;;;1.40;0.53;;;;;;;5.83;100.00;97392.91;6266899;28;20213;-50
2023/12/14 13:38:50;;;;;;;1.07;0.60;;;;;;;5.64;100.00;97374.34;6266419;28;20194;-51
2023/12/14 13:41:53;;;;;;;0.50;0.50;;;;;;;5.78;100.00;97396.19;6264613;28;20212;-49
2023/12/14 13:44:55;;;;;;;0.97;0.60;;;;;;;5.74;100.00;97421.44;6266957;28;20232;-48
2023/12/14 13:47:58;;;;;;;1.03;0.50;;;;;;;5.67;100.00;97429.44;6266123;28;20193;-47
2023/12/14 13:51:01;;;;;;;0.80;0.60;;;;;;;5.64;100.00;97429.84;6266576;28;21185;-50
2023/12/14 13:54:03;;;;;;;1.17;0.90;;;;;;;5.57;100.00;97436.22;6266502;28;20210;-49
2023/12/14 13:57:05;;;;;;;0.50;0.50;;;;;;;5.70;100.00;97446.66;6266481;28;20711;-50
2023/12/14 14:00:09;;;;;;;0.43;0.43;;;;;;;5.65;100.00;97454.44;6266473;28;20219;-48
2023/12/14 14:03:11;;;;;;;1.00;0.80;;;;;;;5.80;100.00;97459.41;6265870;28;20709;-48
2023/12/14 14:06:13;;;;;;;0.97;0.70;;;;;;;5.52;100.00;97436.88;6265592;28;20232;-49
2023/12/14 14:09:15;;;;;;;1.13;0.90;;;;;;;5.67;100.00;97470.91;6266339;28;20736;-50
2023/12/14 14:12:17;;;;;;;1.10;0.93;;;;;;;5.47;100.00;97433.22;6239865;28;20853;-49
2023/12/14 14:15:21;;;;;;;1.00;0.90;;;;;;;5.58;100.00;97480.13;6241332;28;20213;-50